Time;durP1;ratioP1;P1;durP2;ratioP2;P2;SDS_P1;SDS_P2;PMS_P1;PMS_P2;Temp;Humidity;BMP_temperature;BMP_pressure;BME280_temperature;BME280_humidity;BME280_pressure;Samples;Min_cycle;Max_cycle;Signal;HPM_P1;HPM_P2
2022/04/03 00:00:21;;;;;;;4.10;3.53;;;;;;;0.74;89.94;97268.06;5062238;28;20058;-58
2022/04/03 00:02:47;;;;;;;5.57;3.30;;;;;;;0.75;89.73;97257.00;5043285;28;20218;-58
2022/04/03 00:05:12;;;;;;;3.88;3.53;;;;;;;0.75;90.00;97268.00;5063683;28;20040;-59
2022/04/03 00:07:38;;;;;;;3.75;3.45;;;;;;;0.77;89.96;97262.88;5062110;28;20027;-59
2022/04/03 00:10:04;;;;;;;3.67;3.30;;;;;;;0.81;89.78;97270.44;5061941;28;20021;-58
2022/04/03 00:12:30;;;;;;;3.35;3.05;;;;;;;0.77;89.38;97268.84;5062041;28;20052;-58
2022/04/03 00:14:55;;;;;;;3.42;3.13;;;;;;;0.77;89.67;97268.84;5063089;28;20225;-58
2022/04/03 00:17:21;;;;;;;3.50;3.20;;;;;;;0.77;90.09;97268.84;5061242;28;20088;-59
2022/04/03 00:19:47;;;;;;;3.70;3.20;;;;;;;0.73;89.33;97279.97;5062926;28;20359;-58
2022/04/03 00:22:12;;;;;;;3.42;3.13;;;;;;;0.60;89.58;97275.97;5065046;28;20032;-58
2022/04/03 00:24:38;;;;;;;3.70;2.88;;;;;;;0.53;89.80;97282.94;5062607;28;20332;-58
2022/04/03 00:27:04;;;;;;;3.28;2.90;;;;;;;0.72;90.14;97285.91;5059000;28;20118;-58
2022/04/03 00:29:30;;;;;;;3.50;3.20;;;;;;;0.75;89.67;97283.31;5057457;28;20027;-58
2022/04/03 00:31:56;;;;;;;3.35;3.05;;;;;;;0.62;89.66;97271.72;5062546;28;20020;-58
2022/04/03 00:34:41;;;;;;;3.47;3.13;;;;;;;0.59;89.58;97287.06;5062801;28;20240;-59
2022/04/03 00:37:06;;;;;;;3.47;3.17;;;;;;;0.54;90.08;97281.19;5043546;28;20056;-58
2022/04/03 00:39:32;;;;;;;3.92;2.88;;;;;;;0.63;89.89;97286.94;5060281;28;20078;-58
2022/04/03 00:41:58;;;;;;;2.80;2.55;;;;;;;0.64;88.92;97275.91;5062738;28;20033;-58
2022/04/03 00:44:24;;;;;;;3.25;2.80;;;;;;;0.64;89.08;97282.69;5063629;28;20391;-58
2022/04/03 00:46:50;;;;;;;3.45;2.75;;;;;;;0.63;89.62;97273.38;5061419;28;20028;-58
2022/04/03 00:49:16;;;;;;;2.95;2.75;;;;;;;0.67;89.16;97277.53;5044714;28;20033;-58
2022/04/03 00:51:42;;;;;;;3.10;2.80;;;;;;;0.64;89.23;97270.81;5042961;28;20037;-57
2022/04/03 00:54:08;;;;;;;2.72;2.53;;;;;;;0.64;88.79;97267.41;5060929;28;20060;-57
2022/04/03 00:56:34;;;;;;;3.10;2.80;;;;;;;0.76;88.87;97261.22;5062632;28;20017;-57
2022/04/03 00:58:59;;;;;;;3.42;2.47;;;;;;;0.73;88.74;97269.78;5062491;28;20090;-57
2022/04/03 01:01:25;;;;;;;2.75;2.55;;;;;;;0.72;88.63;97257.91;5062462;28;20047;-58
2022/04/03 01:03:50;;;;;;;2.90;2.65;;;;;;;0.69;88.72;97258.78;5048556;28;20048;-57
2022/04/03 01:06:16;;;;;;;3.78;2.88;;;;;;;0.67;88.65;97255.47;5042644;28;20025;-57
2022/04/03 01:08:42;;;;;;;2.80;2.60;;;;;;;0.59;89.00;97264.97;5042700;28;20044;-58
2022/04/03 01:11:20;;;;;;;2.65;2.45;;;;;;;0.54;88.83;97243.84;5048437;28;20108;-57
2022/04/03 01:13:48;;;;;;;2.90;2.60;;;;;;;0.64;89.09;97257.22;5042957;28;20032;-56
2022/04/03 01:16:13;;;;;;;2.63;2.42;;;;;;;0.56;88.47;97259.94;5057692;28;20131;-58
2022/04/03 01:18:39;;;;;;;3.75;2.95;;;;;;;0.59;89.25;97249.69;5061440;28;20025;-58
2022/04/03 01:21:05;;;;;;;3.10;2.80;;;;;;;0.62;88.92;97249.63;5054854;28;20029;-58
2022/04/03 01:23:30;;;;;;;2.85;2.63;;;;;;;0.30;89.90;97240.09;5043536;28;20029;-57
2022/04/03 01:25:56;;;;;;;3.67;2.58;;;;;;;0.46;89.92;97256.75;5042647;28;20025;-58
2022/04/03 01:28:23;;;;;;;3.15;2.85;;;;;;;0.12;89.62;97191.25;5044021;28;20097;-59
2022/04/03 01:30:49;;;;;;;3.47;3.05;;;;;;;0.34;89.53;97228.97;5042683;28;20021;-58
2022/04/03 01:33:16;;;;;;;3.20;2.90;;;;;;;0.50;89.31;97252.44;5042636;28;20076;-58
2022/04/03 01:35:42;;;;;;;3.10;2.90;;;;;;;0.45;90.22;97249.97;5050139;28;20048;-58
2022/04/03 01:38:07;;;;;;;3.30;3.00;;;;;;;0.50;89.76;97250.72;5082466;28;20082;-59
2022/04/03 01:40:35;;;;;;;3.28;2.78;;;;;;;0.37;89.50;97244.22;5062515;28;20059;-57
2022/04/03 01:43:08;;;;;;;3.50;3.20;;;;;;;0.43;89.97;97236.44;5046988;28;20128;-58
2022/04/03 01:45:35;;;;;;;3.00;2.70;;;;;;;0.48;90.37;97239.72;5042122;28;20252;-58
2022/04/03 01:48:01;;;;;;;3.40;3.10;;;;;;;0.49;89.26;97236.31;5084768;28;20044;-57
2022/04/03 01:50:27;;;;;;;3.38;3.08;;;;;;;0.51;89.56;97246.44;5077654;28;20040;-56
2022/04/03 01:52:52;;;;;;;3.60;3.30;;;;;;;0.52;89.09;97235.41;5045725;28;20024;-57
2022/04/03 01:55:18;;;;;;;3.60;3.30;;;;;;;0.58;89.63;97231.91;5059081;28;20383;-57
2022/04/03 01:57:44;;;;;;;3.63;3.20;;;;;;;0.43;90.31;97241.53;5061494;28;20037;-57
2022/04/03 02:00:10;;;;;;;3.45;3.15;;;;;;;0.56;90.02;97238.75;5054423;28;20270;-57
2022/04/03 02:02:37;;;;;;;3.85;3.42;;;;;;;0.60;89.57;97235.22;5046333;28;20083;-57
2022/04/03 02:05:04;;;;;;;5.72;3.45;;;;;;;0.59;89.40;97226.75;5046005;28;20152;-57
2022/04/03 02:07:30;;;;;;;4.20;3.80;;;;;;;0.61;89.87;97230.09;5045927;28;20328;-58
2022/04/03 02:09:56;;;;;;;3.90;3.60;;;;;;;0.57;89.49;97228.53;5045824;28;20033;-57
2022/04/03 02:12:22;;;;;;;4.53;4.07;;;;;;;0.59;89.41;97226.75;5071140;28;20028;-57
2022/04/03 02:14:48;;;;;;;3.88;3.50;;;;;;;0.58;89.54;97234.44;5075855;28;20041;-57
2022/04/03 02:17:13;;;;;;;4.03;3.60;;;;;;;0.51;89.27;97224.41;5047189;28;20021;-57
2022/04/03 02:19:39;;;;;;;4.40;4.00;;;;;;;0.55;89.36;97224.31;5055905;28;20210;-57
2022/04/03 02:22:04;;;;;;;4.38;3.97;;;;;;;0.58;89.43;97224.25;5065547;28;20029;-57
2022/04/03 02:24:30;;;;;;;4.28;3.60;;;;;;;0.67;89.24;97221.50;5054707;28;20018;-57
2022/04/03 02:26:56;;;;;;;3.92;3.63;;;;;;;0.72;89.37;97216.31;5047431;28;20029;-58
2022/04/03 02:29:22;;;;;;;4.28;3.88;;;;;;;0.72;88.72;97221.41;5045422;28;20031;-57
2022/04/03 02:31:47;;;;;;;3.50;3.20;;;;;;;0.67;89.25;97214.72;5045558;28;20029;-58
2022/04/03 02:34:17;;;;;;;3.97;3.60;;;;;;;0.65;88.12;97220.69;5044364;28;20045;-57
2022/04/03 02:36:43;;;;;;;4.13;3.72;;;;;;;0.66;88.31;97218.13;5045217;28;20265;-57
2022/04/03 02:39:09;;;;;;;3.50;3.20;;;;;;;0.56;88.91;97214.09;5051753;28;20048;-57
2022/04/03 02:41:35;;;;;;;3.72;3.35;;;;;;;0.45;88.24;97209.22;5062211;28;20030;-58
2022/04/03 02:44:03;;;;;;;3.72;3.42;;;;;;;0.61;89.04;97214.00;5045352;28;20025;-58
2022/04/03 02:46:29;;;;;;;3.90;3.50;;;;;;;0.51;89.19;97203.16;5044725;28;20326;-59
2022/04/03 02:48:55;;;;;;;3.65;3.35;;;;;;;0.60;88.17;97214.84;5044451;28;20041;-59
2022/04/03 02:51:21;;;;;;;4.82;3.88;;;;;;;0.58;88.58;97214.91;5045171;28;20027;-58
2022/04/03 02:53:46;;;;;;;4.40;3.33;;;;;;;0.58;88.06;97219.16;5054010;28;20030;-58
2022/04/03 02:56:12;;;;;;;3.97;3.50;;;;;;;0.57;88.10;97227.66;5065145;28;20029;-57
2022/04/03 02:58:37;;;;;;;3.80;3.35;;;;;;;0.49;88.70;97215.94;5064917;28;20306;-58
2022/04/03 03:01:03;;;;;;;3.70;3.40;;;;;;;0.34;88.13;97206.94;5079568;28;20032;-58
2022/04/03 03:03:29;;;;;;;4.45;3.60;;;;;;;0.52;87.66;97213.31;5064386;28;20341;-58
2022/04/03 03:05:54;;;;;;;3.75;3.45;;;;;;;0.57;87.84;97222.56;5055837;28;20058;-58
2022/04/03 03:08:20;;;;;;;3.45;3.15;;;;;;;0.44;87.87;97215.22;5072510;28;20025;-58
2022/04/03 03:10:45;;;;;;;3.30;3.00;;;;;;;0.52;87.37;97220.94;5062882;28;20293;-58
2022/04/03 03:13:12;;;;;;;3.20;2.90;;;;;;;0.58;87.28;97220.00;5064397;28;20021;-58
2022/04/03 03:15:39;;;;;;;3.33;3.03;;;;;;;0.59;86.85;97226.75;5053218;28;20367;-57
2022/04/03 03:18:04;;;;;;;3.03;2.78;;;;;;;0.65;87.23;97225.78;5048873;28;20290;-57
2022/04/03 03:20:31;;;;;;;3.40;3.10;;;;;;;0.50;85.87;97225.25;5064619;28;20028;-57
2022/04/03 03:22:56;;;;;;;3.50;3.20;;;;;;;0.60;86.66;97227.59;5064397;28;20035;-57
2022/04/03 03:25:22;;;;;;;3.45;2.65;;;;;;;0.56;85.93;97226.84;5064231;28;20102;-57
2022/04/03 03:27:48;;;;;;;2.95;2.65;;;;;;;0.45;85.88;97224.50;5051564;28;20043;-57
2022/04/03 03:30:13;;;;;;;3.08;2.80;;;;;;;0.49;85.54;97236.31;5044122;28;20047;-57
2022/04/03 03:32:39;;;;;;;3.08;2.80;;;;;;;0.49;85.98;97228.66;5047683;28;20035;-57
2022/04/03 03:35:05;;;;;;;3.28;2.90;;;;;;;0.42;85.52;97237.31;5064356;28;20079;-57
2022/04/03 03:37:31;;;;;;;3.25;2.95;;;;;;;0.33;85.95;97234.97;5082680;28;20090;-58
2022/04/03 03:39:57;;;;;;;3.50;2.83;;;;;;;0.35;85.11;97230.66;5071038;28;20245;-57
2022/04/03 03:42:23;;;;;;;3.13;2.83;;;;;;;0.43;86.27;97239.00;5054649;28;20021;-57
2022/04/03 03:44:49;;;;;;;2.80;2.60;;;;;;;0.40;85.33;97230.56;5043909;28;20116;-58
2022/04/03 03:47:14;;;;;;;3.00;2.80;;;;;;;0.47;85.04;97227.88;5043980;28;20260;-58
2022/04/03 03:49:40;;;;;;;4.05;3.25;;;;;;;0.56;84.76;97237.03;5044522;28;20021;-57
2022/04/03 03:52:06;;;;;;;2.88;2.58;;;;;;;0.55;84.07;97232.78;5059370;28;20033;-57
2022/04/03 03:54:32;;;;;;;3.85;2.58;;;;;;;0.66;84.39;97232.56;5059286;28;20088;-57
2022/04/03 03:56:58;;;;;;;3.03;2.72;;;;;;;0.51;84.30;97229.47;5064094;28;20317;-56
2022/04/03 03:59:24;;;;;;;2.70;2.50;;;;;;;0.41;85.06;97215.25;5062781;28;20052;-57
2022/04/03 04:01:50;;;;;;;3.35;2.50;;;;;;;0.47;84.66;97222.78;5056836;28;20033;-58
2022/04/03 04:04:16;;;;;;;2.90;2.60;;;;;;;0.56;84.25;97238.75;5063457;28;20108;-56
2022/04/03 04:06:41;;;;;;;3.33;2.80;;;;;;;0.60;83.84;97241.19;5063526;28;20070;-57
2022/04/03 04:09:07;;;;;;;3.08;2.88;;;;;;;0.66;84.82;97250.41;5063635;28;20067;-57
2022/04/03 04:11:32;;;;;;;3.08;2.80;;;;;;;0.57;82.99;97238.72;5061266;28;20021;-59
2022/04/03 04:13:58;;;;;;;3.47;2.83;;;;;;;0.40;83.12;97251.78;5043389;28;20021;-59
2022/04/03 04:16:24;;;;;;;3.60;2.58;;;;;;;0.59;83.99;97248.84;5060781;28;20083;-58
2022/04/03 04:18:50;;;;;;;2.50;2.30;;;;;;;0.73;83.41;97253.63;5061391;28;20036;-59
2022/04/03 04:21:17;;;;;;;2.63;2.42;;;;;;;0.62;82.72;97233.50;5063232;28;20036;-58
2022/04/03 04:23:42;;;;;;;2.72;2.53;;;;;;;0.81;83.30;97256.84;5059077;28;20033;-59
2022/04/03 04:26:09;;;;;;;2.65;2.40;;;;;;;0.79;82.36;97254.34;5042963;28;20028;-59
2022/04/03 04:28:34;;;;;;;2.70;2.50;;;;;;;0.91;82.50;97263.41;5049313;28;20310;-58
2022/04/03 04:31:00;;;;;;;3.95;3.40;;;;;;;0.90;82.06;97268.56;5049010;28;20045;-62
2022/04/03 04:33:25;;;;;;;3.08;2.60;;;;;;;0.80;81.79;97267.94;5067418;28;20031;-58
2022/04/03 04:35:51;;;;;;;2.80;2.60;;;;;;;0.79;81.76;97269.63;5082250;28;20058;-59
2022/04/03 04:38:17;;;;;;;2.58;2.20;;;;;;;0.90;82.02;97271.09;5082654;28;20077;-58
2022/04/03 04:40:43;;;;;;;3.15;2.85;;;;;;;0.77;82.54;97270.53;5062771;28;20036;-57
2022/04/03 04:43:10;;;;;;;2.90;2.65;;;;;;;0.82;82.29;97273.81;5077935;28;20028;-58
2022/04/03 04:45:36;;;;;;;2.83;2.50;;;;;;;0.49;82.27;97278.75;5082453;28;20186;-59
2022/04/03 04:48:01;;;;;;;2.60;2.40;;;;;;;0.69;82.84;97275.78;5082694;28;20039;-57
2022/04/03 04:50:29;;;;;;;2.70;2.50;;;;;;;0.68;82.66;97286.84;5080890;28;20221;-57
2022/04/03 04:52:58;;;;;;;3.20;2.90;;;;;;;0.78;82.74;97285.78;5047831;28;20035;-57
2022/04/03 04:55:25;;;;;;;3.55;2.63;;;;;;;0.89;83.51;97289.81;5059977;28;20029;-57
2022/04/03 04:57:53;;;;;;;2.90;2.60;;;;;;;0.59;82.96;97220.84;5063097;28;20033;-58
2022/04/03 05:00:20;;;;;;;3.42;2.67;;;;;;;0.75;83.12;97300.31;5070262;28;20233;-58
2022/04/03 05:02:47;;;;;;;3.85;2.83;;;;;;;0.90;83.07;97288.94;5082702;28;20052;-57
2022/04/03 05:05:14;;;;;;;3.78;2.83;;;;;;;0.94;83.16;97293.94;5081806;28;20036;-58
2022/04/03 05:07:40;;;;;;;3.33;2.80;;;;;;;0.86;83.24;97285.63;5082696;28;20351;-58
2022/04/03 05:10:07;;;;;;;3.17;2.88;;;;;;;0.95;83.33;97293.06;5082806;28;20101;-57
2022/04/03 05:12:35;;;;;;;2.70;2.45;;;;;;;0.49;83.08;97231.22;5075727;28;20036;-57
2022/04/03 05:15:01;;;;;;;3.95;2.88;;;;;;;0.97;81.91;97293.03;5082432;28;20025;-58
2022/04/03 05:17:29;;;;;;;4.40;3.10;;;;;;;0.83;83.00;97288.25;5082916;28;20066;-58
2022/04/03 05:19:54;;;;;;;4.45;2.53;;;;;;;0.99;81.75;97297.22;5062624;28;20265;-58
2022/04/03 05:22:25;;;;;;;3.17;2.60;;;;;;;1.18;81.24;97297.66;5078791;28;20084;-58
2022/04/03 05:24:53;;;;;;;3.08;2.28;;;;;;;1.25;80.91;97313.63;5068162;28;20060;-58
2022/04/03 05:27:19;;;;;;;3.42;2.75;;;;;;;1.31;81.32;97308.41;5054385;28;20048;-58
2022/04/03 05:29:45;;;;;;;3.10;2.67;;;;;;;1.34;80.51;97315.13;5045629;28;20025;-57
2022/04/03 05:32:10;;;;;;;3.17;2.28;;;;;;;1.41;80.82;97321.81;5062563;28;20052;-57
2022/04/03 05:34:36;;;;;;;3.20;2.90;;;;;;;1.50;80.47;97319.03;5063619;28;20328;-56
2022/04/03 05:37:02;;;;;;;2.92;2.72;;;;;;;1.37;79.22;97326.13;5066143;28;20021;-58
2022/04/03 05:39:27;;;;;;;3.10;2.80;;;;;;;1.20;78.93;97325.66;5065450;28;20037;-58
2022/04/03 05:41:55;;;;;;;3.00;2.70;;;;;;;1.19;78.81;97324.81;5070571;28;20031;-56
2022/04/03 05:44:22;;;;;;;3.05;2.75;;;;;;;1.19;79.31;97329.91;5085672;28;20077;-57
2022/04/03 05:46:48;;;;;;;3.53;3.05;;;;;;;1.16;79.30;97317.25;5045248;28;20087;-56
2022/04/03 05:49:14;;;;;;;3.40;2.60;;;;;;;1.15;78.91;97323.19;5075637;28;20048;-57
2022/04/03 05:51:41;;;;;;;4.40;2.60;;;;;;;1.08;79.66;97320.84;5063968;28;20344;-57
2022/04/03 05:54:06;;;;;;;2.80;2.60;;;;;;;1.25;79.94;97326.38;5058366;28;20317;-58
2022/04/03 05:56:32;;;;;;;2.72;2.50;;;;;;;1.20;79.92;97329.03;5063262;28;20031;-57
2022/04/03 05:58:58;;;;;;;3.80;2.90;;;;;;;1.32;80.06;97329.66;5063614;28;20337;-58
2022/04/03 06:01:24;;;;;;;3.65;2.85;;;;;;;1.28;79.51;97338.22;5063938;28;20071;-59
2022/04/03 06:03:50;;;;;;;2.92;2.70;;;;;;;1.15;78.62;97347.88;5063654;28;20028;-58
2022/04/03 06:06:16;;;;;;;2.92;2.70;;;;;;;0.93;78.19;97329.66;5062066;28;20032;-57
2022/04/03 06:08:43;;;;;;;2.97;2.67;;;;;;;1.10;78.39;97344.56;5064705;28;20017;-57
2022/04/03 06:11:09;;;;;;;4.07;2.92;;;;;;;1.23;78.69;97347.69;5063449;28;20033;-57
2022/04/03 06:13:35;;;;;;;3.50;3.20;;;;;;;1.15;78.66;97337.66;5063257;28;20032;-58
2022/04/03 06:16:00;;;;;;;3.75;2.58;;;;;;;1.27;77.37;97351.84;5053677;28;20071;-57
2022/04/03 06:18:26;;;;;;;3.88;2.60;;;;;;;1.22;76.98;97351.13;5064637;28;20050;-57
2022/04/03 06:20:52;;;;;;;3.10;2.80;;;;;;;1.17;77.37;97361.44;5058134;28;20116;-57
2022/04/03 06:23:20;;;;;;;3.53;2.85;;;;;;;0.96;78.23;97301.56;5044033;28;20037;-57
2022/04/03 06:25:47;;;;;;;3.92;2.80;;;;;;;1.07;77.50;97365.88;5081875;28;20044;-57
2022/04/03 06:28:13;;;;;;;3.20;2.90;;;;;;;1.22;78.39;97364.69;5064248;28;20021;-58
2022/04/03 06:30:39;;;;;;;4.28;3.10;;;;;;;1.29;77.88;97371.34;5063716;28;20065;-58
2022/04/03 06:33:05;;;;;;;3.92;2.88;;;;;;;1.34;75.96;97369.53;5064263;28;20025;-57
2022/04/03 06:35:31;;;;;;;3.00;2.70;;;;;;;0.95;77.11;97368.69;5065842;28;20025;-57
2022/04/03 06:37:56;;;;;;;3.58;2.90;;;;;;;1.01;77.46;97378.72;5065184;28;20317;-57
2022/04/03 06:40:23;;;;;;;3.25;2.95;;;;;;;1.23;77.51;97378.28;5063809;28;20246;-58
2022/04/03 06:42:50;;;;;;;3.50;3.20;;;;;;;1.31;77.30;97386.59;5070829;28;20032;-57
2022/04/03 06:45:16;;;;;;;3.50;3.20;;;;;;;1.35;77.50;97383.97;5069362;28;20398;-57
2022/04/03 06:47:42;;;;;;;3.22;2.85;;;;;;;1.34;76.97;97389.06;5072774;28;20033;-57
2022/04/03 06:50:08;;;;;;;3.05;2.75;;;;;;;1.37;76.82;97399.25;5066474;28;20318;-57
2022/04/03 06:52:35;;;;;;;3.40;3.10;;;;;;;1.47;77.83;97394.75;5064962;28;20087;-56
2022/04/03 06:55:00;;;;;;;3.45;3.13;;;;;;;1.34;76.75;97395.03;5061631;28;20051;-56
2022/04/03 06:57:26;;;;;;;3.30;2.95;;;;;;;1.27;76.27;97398.59;5061264;28;20349;-56
2022/04/03 06:59:51;;;;;;;3.25;2.83;;;;;;;1.23;75.91;97407.16;5065492;28;20406;-56
2022/04/03 07:02:17;;;;;;;3.15;2.85;;;;;;;1.01;75.82;97407.63;5082912;28;20252;-56
2022/04/03 07:04:43;;;;;;;3.90;2.83;;;;;;;1.07;76.06;97413.44;5046327;28;20029;-57
2022/04/03 07:07:08;;;;;;;3.72;3.33;;;;;;;1.11;76.72;97417.63;5044597;28;20310;-57
2022/04/03 07:09:46;;;;;;;3.53;3.15;;;;;;;1.05;76.42;97425.41;5044741;28;20036;-56
2022/04/03 07:12:12;;;;;;;3.40;3.10;;;;;;;1.09;76.41;97420.19;5051400;28;20405;-57
2022/04/03 07:14:37;;;;;;;2.80;2.60;;;;;;;1.12;75.47;97425.22;5050451;28;20025;-56
2022/04/03 07:17:03;;;;;;;2.95;2.65;;;;;;;1.05;75.10;97423.66;5063518;28;20043;-56
2022/04/03 07:19:29;;;;;;;3.53;2.92;;;;;;;1.13;74.87;97437.09;5064413;28;20033;-57
2022/04/03 07:21:56;;;;;;;5.45;3.45;;;;;;;1.02;74.78;97436.47;5064038;28;20025;-57
2022/04/03 07:24:22;;;;;;;6.45;3.35;;;;;;;1.23;75.54;97447.97;5071557;28;20098;-57
2022/04/03 07:26:47;;;;;;;4.30;3.22;;;;;;;1.34;76.58;97456.22;5081057;28;20320;-57
2022/04/03 07:29:13;;;;;;;3.85;3.55;;;;;;;1.34;77.02;97457.91;5084748;28;20030;-57
2022/04/03 07:31:39;;;;;;;3.63;3.33;;;;;;;1.09;76.08;97458.44;5047414;28;20037;-56
2022/04/03 07:34:04;;;;;;;3.60;3.30;;;;;;;0.99;76.14;97464.56;5069274;28;20024;-58
2022/04/03 07:36:30;;;;;;;4.93;3.22;;;;;;;0.90;75.73;97485.13;5067642;28;20025;-58
2022/04/03 07:38:56;;;;;;;3.33;3.03;;;;;;;0.88;76.76;97481.78;5046115;28;20036;-57
2022/04/03 07:41:22;;;;;;;3.30;3.00;;;;;;;0.85;75.97;97492.84;5062798;28;20017;-57
2022/04/03 07:43:48;;;;;;;3.58;2.97;;;;;;;0.77;74.63;97487.91;5045119;28;20380;-58
2022/04/03 07:46:16;;;;;;;4.47;3.25;;;;;;;0.72;73.92;97487.16;5043856;28;20063;-57
2022/04/03 07:48:45;;;;;;;4.60;3.33;;;;;;;0.69;75.05;97505.03;5052024;28;20025;-57
2022/04/03 07:51:11;;;;;;;5.85;3.50;;;;;;;0.69;74.95;97503.31;5062214;28;20328;-57
2022/04/03 07:53:38;;;;;;;4.75;3.78;;;;;;;0.78;75.99;97509.94;5062345;28;20225;-57
2022/04/03 07:56:05;;;;;;;3.53;3.13;;;;;;;0.77;75.66;97508.28;5042948;28;20079;-57
2022/04/03 07:58:35;;;;;;;3.88;3.45;;;;;;;0.83;74.61;97520.91;5058887;28;20032;-57
2022/04/03 08:01:01;;;;;;;3.70;3.38;;;;;;;0.88;76.65;97515.72;5076167;28;20028;-57
2022/04/03 08:03:27;;;;;;;4.07;3.60;;;;;;;0.86;75.92;97508.13;5083807;28;20032;-57
2022/04/03 08:05:55;;;;;;;3.80;3.50;;;;;;;0.85;75.52;97521.72;5077659;28;20341;-58
2022/04/03 08:08:21;;;;;;;7.75;4.00;;;;;;;0.76;74.82;97526.97;5046823;28;20252;-58
2022/04/03 08:10:47;;;;;;;4.60;3.92;;;;;;;0.96;74.51;97533.44;5045511;28;20037;-57
2022/04/03 08:13:14;;;;;;;4.82;3.72;;;;;;;0.99;75.68;97541.03;5049700;28;20061;-57
2022/04/03 08:15:40;;;;;;;4.47;3.30;;;;;;;0.88;73.58;97540.38;5043537;28;20029;-57
2022/04/03 08:18:06;;;;;;;4.03;3.30;;;;;;;0.86;73.93;97548.06;5050506;28;20024;-57
2022/04/03 08:20:31;;;;;;;4.57;3.47;;;;;;;0.95;74.53;97558.06;5063405;28;20330;-57
2022/04/03 08:23:00;;;;;;;5.10;3.80;;;;;;;1.01;73.93;97552.88;5063382;28;20025;-57
2022/04/03 08:25:25;;;;;;;3.80;3.30;;;;;;;0.98;72.62;97554.63;5073346;28;20067;-57
2022/04/03 08:27:53;;;;;;;3.42;3.13;;;;;;;0.92;72.45;97553.03;5052228;28;20025;-57
2022/04/03 08:30:25;;;;;;;5.00;4.18;;;;;;;1.05;73.23;97563.84;5043285;28;20029;-57
2022/04/03 08:32:52;;;;;;;3.72;3.42;;;;;;;1.08;72.15;97560.41;5043170;28;20021;-57
2022/04/03 08:35:19;;;;;;;8.55;4.10;;;;;;;1.14;73.16;97561.16;5043132;28;20036;-57
2022/04/03 08:37:45;;;;;;;9.95;4.03;;;;;;;1.26;71.90;97569.44;5042685;28;20044;-57
2022/04/03 08:40:12;;;;;;;4.68;3.72;;;;;;;1.29;71.06;97569.38;5060373;28;20248;-57
2022/04/03 08:42:39;;;;;;;5.65;3.65;;;;;;;1.26;70.91;97574.53;5070474;28;20023;-57
2022/04/03 08:45:06;;;;;;;3.72;3.33;;;;;;;1.49;70.02;97569.81;5074822;28;20021;-57
2022/04/03 08:47:36;;;;;;;4.32;3.60;;;;;;;1.66;69.80;97574.59;5061377;28;20029;-58
2022/04/03 08:50:02;;;;;;;5.72;3.45;;;;;;;1.77;69.96;97565.88;5043408;28;20187;-57
2022/04/03 08:52:32;;;;;;;4.28;3.45;;;;;;;1.65;69.13;97552.50;5058321;28;20310;-57
2022/04/03 08:54:59;;;;;;;4.60;3.60;;;;;;;1.60;70.23;97569.63;5062710;28;20114;-57
2022/04/03 08:57:24;;;;;;;4.65;3.40;;;;;;;1.77;68.39;97576.94;5062883;28;20052;-56
2022/04/03 08:59:51;;;;;;;5.50;3.70;;;;;;;1.98;69.23;97569.69;5059321;28;20087;-56
2022/04/03 09:02:17;;;;;;;4.80;3.40;;;;;;;2.13;69.79;97576.19;5041363;28;20045;-57
2022/04/03 09:04:43;;;;;;;5.03;3.70;;;;;;;2.40;69.52;97567.91;5042270;28;20037;-56
2022/04/03 09:07:17;;;;;;;3.88;3.50;;;;;;;2.19;66.25;97589.66;5042319;28;20041;-57
2022/04/03 09:09:42;;;;;;;4.43;3.28;;;;;;;2.67;66.55;97580.91;5060667;28;20031;-57
2022/04/03 09:12:13;;;;;;;3.58;2.88;;;;;;;3.10;66.24;97581.56;5074919;28;20028;-56
2022/04/03 09:14:46;;;;;;;4.18;3.53;;;;;;;3.09;65.92;97578.19;5081397;28;20032;-57
2022/04/03 09:17:12;;;;;;;5.43;3.42;;;;;;;3.22;65.80;97591.50;5042556;28;20021;-57
2022/04/03 09:19:37;;;;;;;3.97;3.28;;;;;;;3.18;65.72;97589.03;5059305;28;20363;-57
2022/04/03 09:22:03;;;;;;;4.85;3.25;;;;;;;3.12;66.06;97595.16;5062387;28;20024;-57
2022/04/03 09:24:29;;;;;;;3.90;3.53;;;;;;;3.21;65.32;97601.75;5055045;28;20021;-57
2022/04/03 09:26:59;;;;;;;3.95;3.65;;;;;;;2.88;64.84;97543.78;5050965;28;20363;-56
2022/04/03 09:29:25;;;;;;;7.53;3.60;;;;;;;3.14;64.72;97601.06;5082571;28;20028;-57
2022/04/03 09:31:58;;;;;;;5.72;4.30;;;;;;;2.94;66.07;97551.28;5082186;28;20139;-57
2022/04/03 09:34:26;;;;;;;4.10;3.25;;;;;;;3.01;64.09;97612.50;5052586;28;20068;-56
2022/04/03 09:36:59;;;;;;;4.65;3.15;;;;;;;2.99;64.56;97617.63;5042104;28;20096;-57
2022/04/03 09:39:30;;;;;;;3.92;3.08;;;;;;;2.78;62.46;97561.91;5049053;28;20039;-57
2022/04/03 09:41:58;;;;;;;3.53;3.10;;;;;;;3.15;63.35;97630.91;5061927;28;20025;-57
2022/04/03 09:44:26;;;;;;;4.18;3.13;;;;;;;3.21;63.08;97622.22;5061236;28;20427;-56
2022/04/03 09:47:14;;;;;;;7.07;3.70;;;;;;;3.39;64.94;97620.91;5042342;28;20078;-56
2022/04/03 09:49:49;;;;;;;4.13;3.55;;;;;;;3.39;65.18;97639.66;5042195;28;20018;-58
2022/04/03 09:52:45;;;;;;;3.25;2.83;;;;;;;3.07;63.42;97640.47;5042059;28;20037;-56
2022/04/03 09:55:22;;;;;;;3.42;3.00;;;;;;;3.30;63.33;97652.69;5040987;28;20285;-57
2022/04/03 09:58:05;;;;;;;3.85;3.03;;;;;;;3.26;61.61;97622.94;5051887;28;20037;-57
2022/04/03 10:00:37;;;;;;;10.07;3.95;;;;;;;3.24;63.78;97597.41;5066448;28;20138;-57
2022/04/03 10:03:04;;;;;;;5.07;2.95;;;;;;;3.70;63.95;97655.91;5064173;28;20144;-56
2022/04/03 10:05:31;;;;;;;3.83;2.92;;;;;;;3.72;61.08;97655.00;5082130;28;20060;-57
2022/04/03 10:08:02;;;;;;;5.35;4.15;;;;;;;3.11;64.32;97591.75;5049654;28;20017;-57
2022/04/03 10:10:29;;;;;;;4.93;3.60;;;;;;;3.63;62.58;97657.78;5061149;28;20043;-57
2022/04/03 10:12:55;;;;;;;7.53;4.00;;;;;;;3.81;63.26;97646.22;5060604;28;20021;-57
2022/04/03 10:15:22;;;;;;;8.27;3.67;;;;;;;3.87;62.35;97648.63;5061371;28;20061;-57
2022/04/03 10:17:47;;;;;;;6.32;3.40;;;;;;;4.10;64.57;97650.53;5060655;28;20028;-57
2022/04/03 10:20:14;;;;;;;4.75;3.30;;;;;;;4.08;63.17;97651.47;5061000;28;20226;-56
2022/04/03 10:22:42;;;;;;;4.07;2.70;;;;;;;3.71;61.06;97658.44;5064494;28;20025;-58
2022/04/03 10:25:14;;;;;;;3.03;2.75;;;;;;;3.77;62.25;97667.69;5077630;28;20028;-57
2022/04/03 10:27:43;;;;;;;4.18;3.20;;;;;;;3.96;61.74;97650.94;5065489;28;20036;-57
2022/04/03 10:30:10;;;;;;;4.60;2.90;;;;;;;4.00;60.31;97656.78;5053073;28;20066;-57
2022/04/03 10:32:37;;;;;;;4.85;3.25;;;;;;;4.10;61.64;97659.94;5075022;28;20028;-57
2022/04/03 10:35:11;;;;;;;4.72;3.22;;;;;;;3.80;60.68;97675.28;5045623;28;20036;-58
2022/04/03 10:37:40;;;;;;;4.30;2.90;;;;;;;3.45;61.58;97607.97;5071135;28;20033;-58
2022/04/03 10:40:15;;;;;;;3.90;2.90;;;;;;;3.87;61.00;97663.97;5076836;28;20083;-58
2022/04/03 10:42:56;;;;;;;3.22;2.80;;;;;;;4.01;60.10;97663.59;5085291;28;20039;-58
2022/04/03 10:45:25;;;;;;;3.83;2.88;;;;;;;4.14;61.76;97666.66;5076139;28;20342;-58
2022/04/03 10:47:52;;;;;;;4.05;2.75;;;;;;;4.08;60.66;97661.72;5063798;28;20043;-59
2022/04/03 10:50:18;;;;;;;3.33;2.70;;;;;;;4.24;60.19;97665.50;5045088;28;20033;-58
2022/04/03 10:52:43;;;;;;;2.80;2.60;;;;;;;4.27;60.14;97669.72;5048361;28;20213;-58
2022/04/03 10:55:25;;;;;;;3.13;2.83;;;;;;;4.41;61.36;97657.34;5052791;28;20041;-58
2022/04/03 10:58:06;;;;;;;39.83;19.98;;;;;;;4.07;61.02;97670.28;5054779;28;20055;-58
2022/04/03 11:00:39;;;;;;;5.53;3.13;;;;;;;4.25;61.58;97669.75;5058057;28;20060;-58
2022/04/03 11:03:14;;;;;;;4.97;3.33;;;;;;;4.46;59.68;97681.09;5047970;28;20064;-59
2022/04/03 11:05:42;;;;;;;4.72;3.50;;;;;;;4.51;60.39;97687.84;5064918;28;20053;-58
2022/04/03 11:08:07;;;;;;;3.97;3.15;;;;;;;4.46;60.56;97682.81;5065007;28;20025;-58
2022/04/03 11:10:42;;;;;;;4.85;2.88;;;;;;;4.43;61.03;97682.91;5049218;28;20035;-60
2022/04/03 11:13:08;;;;;;;3.90;2.85;;;;;;;4.44;61.84;97684.59;5076001;28;20286;-59
2022/04/03 11:15:46;;;;;;;4.95;2.92;;;;;;;4.54;61.54;97693.69;5070264;28;20048;-59
2022/04/03 11:18:25;;;;;;;4.85;3.47;;;;;;;4.22;60.00;97636.53;5044724;28;20014;-58
2022/04/03 11:21:22;;;;;;;4.18;3.35;;;;;;;4.62;60.20;97701.16;5045707;28;20065;-57
2022/04/03 11:23:52;;;;;;;5.18;2.60;;;;;;;4.62;59.39;97709.69;5060044;28;20063;-58
2022/04/03 11:26:19;;;;;;;2.97;2.45;;;;;;;4.40;60.85;97703.50;5063932;28;20066;-58
2022/04/03 11:28:45;;;;;;;3.35;2.72;;;;;;;4.44;60.17;97711.06;5064614;28;20296;-58
2022/04/03 11:31:12;;;;;;;2.55;2.20;;;;;;;4.47;59.19;97716.09;5060440;28;20033;-59
2022/04/03 11:33:38;;;;;;;3.05;2.47;;;;;;;4.56;60.96;97717.56;5062617;28;20055;-59
2022/04/03 11:36:12;;;;;;;3.53;2.10;;;;;;;4.18;58.52;97673.38;5063748;28;20037;-58
2022/04/03 11:38:43;;;;;;;5.68;2.35;;;;;;;4.21;59.52;97729.66;5063630;28;20033;-58
2022/04/03 11:41:36;;;;;;;7.30;4.33;;;;;;;4.56;60.62;97724.41;5061708;28;20028;-59